Latest Weather Observations for Redland (Alexandra Hills)

IDQ60801

Issued at 9:32 pm EST Saturday 25 March 2017 (issued every 30 minutes, with the page automatically refreshed every 10 minutes)

About weather observations | Map of weather stations | Latest weather observations for QLD | Other Formats
Station Details ID: 140007 Name: REDLAND (ALEXANDRA HILLS) Lat: -27.54 Lon: 153.24 Height: 50.53 m
Data from the previous 72 hours. | See also: Recent months at Redland (Alexandra Hills)
Date/Time
EST
Temp
°C
App
Temp
°C
Dew
Point
°C
Rel
Hum
%
Delta-T
°C
Wind Press
QNH
hPa
Press
MSL
hPa
Rain since
9am
mm
Dir  Spd
km/h
Gust
km/h
Spd
kts
Gust
kts
25/09:00pm 23.6 25.8 19.3 77 2.8 ENE 6 7 3 4 - - 0.0
25/08:30pm 23.5 25.7 19.2 77 2.7 ENE 6 9 3 5 - - 0.0
25/08:00pm 23.2 26.0 19.6 80 2.3 E 4 9 2 5 - - 0.0
25/07:30pm 22.9 25.4 19.1 79 2.4 ESE 4 6 2 3 - - 0.0
25/07:00pm 23.3 25.4 19.0 77 2.7 ESE 6 13 3 7 - - 0.0
25/06:30pm 23.5 25.0 18.8 75 3.0 ESE 9 15 5 8 - - 0.0
25/06:00pm 23.8 25.6 18.7 73 3.2 ESE 7 15 4 8 - - 0.0
25/05:30pm 24.4 26.1 18.6 70 3.7 ESE 7 15 4 8 - - 0.0
25/05:00pm 24.9 26.6 18.4 67 4.1 SE 7 15 4 8 - - 0.0
25/04:30pm 24.9 26.4 18.8 69 3.9 SE 9 19 5 10 - - 0.0
25/04:00pm 25.4 26.6 19.1 68 4.0 ESE 11 22 6 12 - - 0.0
25/03:30pm 25.7 27.3 19.1 67 4.2 ESE 9 17 5 9 - - 0.0
25/03:00pm 26.0 27.4 19.6 68 4.1 SE 11 22 6 12 - - 0.0
25/02:30pm 26.4 27.8 19.5 66 4.5 ESE 11 24 6 13 - - 0.0
25/02:00pm 25.5 26.9 19.6 70 3.8 SSE 11 22 6 12 - - 0.0
25/01:30pm 25.0 26.2 20.0 74 3.2 ESE 13 22 7 12 - - 0.0
25/01:00pm 26.1 27.8 20.2 70 3.9 ESE 11 20 6 11 - - 0.0
25/12:30pm 26.1 27.3 20.0 69 4.0 SE 13 24 7 13 - - 0.0
25/12:00pm 25.8 26.9 20.4 72 3.5 SE 15 24 8 13 - - 0.0
25/11:30am 25.7 27.6 20.5 73 3.4 SE 11 22 6 12 - - 0.0
25/11:00am 25.7 27.7 20.7 74 3.3 SE 11 22 6 12 - - 0.0
25/10:30am 26.6 27.9 20.2 68 4.2 SE 13 24 7 13 - - 0.0
25/10:00am 26.5 28.2 20.1 68 4.2 SE 11 20 6 11 - - 0.0
25/09:30am 25.9 26.9 20.2 71 3.7 SE 15 24 8 13 - - 0.0
25/09:00am 25.5 26.9 20.3 73 3.4 SE 13 20 7 11 - - 4.8
25/08:30am 25.4 27.3 20.6 75 3.1 SSE 11 19 6 10 - - 4.8
25/08:00am 23.9 25.4 19.8 78 2.6 SSE 11 20 6 11 - - 4.8
25/07:30am 23.1 24.6 19.7 81 2.2 SSE 11 19 6 10 - - 4.8
25/07:00am 22.2 24.0 19.6 85 1.7 S 9 15 5 8 - - 4.8
25/06:30am 21.8 23.5 19.4 86 1.5 S 9 15 5 8 - - 4.8
25/06:00am 21.5 23.5 19.2 87 1.5 SSE 7 13 4 7 - - 4.8
25/05:30am 21.4 23.0 19.1 87 1.5 S 9 17 5 9 - - 4.8
25/05:00am 21.5 23.1 19.2 87 1.5 S 9 19 5 10 - - 4.8
25/04:30am 21.6 23.3 19.3 87 1.5 S 9 17 5 9 - - 4.8
25/04:00am 21.7 23.0 19.4 87 1.5 S 11 19 6 10 - - 4.8
25/03:30am 22.1 24.3 19.5 85 1.7 S 7 15 4 8 - - 4.8
25/03:00am 22.2 24.3 19.4 84 1.8 SSE 7 15 4 8 - - 4.8
25/02:30am 22.3 24.4 19.3 83 1.9 SSE 7 15 4 8 - - 4.8
25/02:00am 22.2 23.9 19.4 84 1.8 S 9 15 5 8 - - 4.8
25/01:30am 22.1 23.8 19.3 84 1.8 S 9 15 5 8 - - 4.8
25/01:00am 22.2 23.8 19.2 83 1.9 S 9 17 5 9 - - 4.8
25/12:30am 22.5 23.7 19.1 81 2.2 SSE 11 20 6 11 - - 4.8
25/12:00am 22.6 23.8 19.0 80 2.3 SSE 11 20 6 11 - - 4.8
 
Date/Time
EST
Temp
°C
App
Temp
°C
Dew
Point
°C
Rel
Hum
%
Delta-T
°C
Wind Press
QNH
hPa
Press
MSL
hPa
Rain since
9am
mm
Dir  Spd
km/h
Gust
km/h
Spd
kts
Gust
kts
24/11:30pm 22.7 23.4 18.9 79 2.4 SSE 13 22 7 12 - - 4.8
24/11:00pm 22.8 24.1 19.2 80 2.3 SSE 11 24 6 13 - - 4.8
24/10:30pm 22.8 23.8 19.4 81 2.2 SSE 13 22 7 12 - - 4.8
24/10:00pm 22.7 23.7 19.5 82 2.0 SSE 13 24 7 13 - - 4.8
24/09:30pm 22.4 23.5 19.6 84 1.8 SSE 13 28 7 15 - - 4.8
24/09:00pm 22.4 23.5 19.6 84 1.8 SSE 13 22 7 12 - - 4.8
24/08:30pm 22.7 23.3 19.5 82 2.0 SSE 15 32 8 17 - - 4.8
24/08:00pm 22.8 23.7 20.0 84 1.8 SSE 15 35 8 19 - - 4.8
24/07:30pm 23.1 24.5 20.4 85 1.8 SSE 13 26 7 14 - - 4.8
24/07:00pm 23.3 25.4 21.0 87 1.5 SE 11 20 6 11 - - 4.8
24/06:30pm 23.6 25.6 21.5 88 1.4 SE 13 28 7 15 - - 4.8
24/06:00pm 23.8 26.5 22.1 90 1.1 SE 11 19 6 10 - - 4.8
24/05:30pm 23.6 26.7 22.2 92 0.9 SE 9 20 5 11 - - 4.8
24/05:00pm 23.3 26.5 22.3 94 0.7 SE 9 19 5 10 - - 4.8
24/04:30pm 23.2 25.4 21.8 92 0.9 SE 13 26 7 14 - - 4.2
24/04:00pm 25.1 28.0 21.8 82 2.2 SE 9 20 5 11 - - 3.8
24/03:30pm 24.7 28.2 22.2 86 1.7 ESE 7 17 4 9 - - 3.8
24/03:00pm 24.8 28.5 22.5 87 1.5 ESE 7 19 4 10 - - 3.8
24/02:30pm 24.7 26.9 21.8 84 1.9 ESE 13 22 7 12 - - 1.8
24/02:00pm 26.8 29.4 22.0 75 3.2 ESE 11 19 6 10 - - 0.0
24/01:30pm 26.9 29.1 21.9 74 3.4 ESE 13 20 7 11 - - 0.0
24/01:00pm 26.5 30.7 23.4 83 2.1 E 7 19 4 10 - - 0.0
24/12:30pm 26.8 29.5 22.2 76 3.1 E 11 19 6 10 - - 0.0
24/12:00pm 28.3 31.1 22.3 70 4.1 E 11 20 6 11 - - 0.0
24/11:30am 27.9 30.6 22.2 71 3.8 E 11 19 6 10 - - 0.0
24/11:00am 27.9 30.8 22.4 72 3.7 E 11 20 6 11 - - 0.0
24/10:30am 27.1 30.7 22.3 75 3.2 ESE 7 15 4 8 - - 0.0
24/10:00am 27.1 30.9 22.7 77 3.0 ESE 7 13 4 7 - - 0.0
24/09:30am 26.6 30.0 22.0 76 3.1 ESE 7 15 4 8 - - 0.0
24/09:00am 26.4 29.8 22.0 77 3.0 ESE 7 11 4 6 - - 7.6
24/08:30am 26.0 30.6 23.1 84 2.0 ESE 4 7 2 4 - - 7.6
24/08:00am 24.9 28.9 23.1 90 1.2 SSE 7 15 4 8 - - 7.6
24/07:30am 23.3 27.2 22.5 95 0.5 S 6 9 3 5 - - 7.6
24/07:00am 22.5 26.0 21.8 96 0.5 S 6 7 3 4 - - 7.6
24/06:30am 22.1 25.9 21.6 97 0.3 S 4 6 2 3 - - 7.6
24/06:00am 21.7 24.9 21.2 97 0.3 S 6 6 3 3 - - 7.4
24/05:30am 22.0 25.7 21.5 97 0.3 S 4 6 2 3 - - 7.4
24/05:00am 22.2 25.9 21.5 96 0.5 S 4 4 2 2 - - 7.4
24/04:30am 22.4 26.2 21.7 96 0.5 S 4 6 2 3 - - 7.4
24/04:00am 22.5 26.4 21.8 96 0.5 SSE 4 4 2 2 - - 7.4
24/03:30am 22.8 26.8 22.1 96 0.5 SSE 4 6 2 3 - - 7.4
24/03:00am 23.0 27.9 22.3 96 0.5 CALM 0 4 0 2 - - 7.4
24/02:30am 23.3 28.2 22.3 94 0.7 CALM 0 7 0 4 - - 3.0
24/02:00am 23.3 27.0 22.3 94 0.7 SW 6 9 3 5 - - 0.0
24/01:30am 23.1 27.5 22.1 94 0.7 SSE 2 4 1 2 - - 0.0
24/01:00am 23.1 27.1 22.1 94 0.7 SSE 4 4 2 2 - - 0.0
24/12:30am 23.1 27.9 22.1 94 0.7 CALM 0 0 0 0 - - 0.0
24/12:00am 23.4 28.0 21.8 91 1.1 CALM 0 0 0 0 - - 0.0
 
Date/Time
EST
Temp
°C
App
Temp
°C
Dew
Point
°C
Rel
Hum
%
Delta-T
°C
Wind Press
QNH
hPa
Press
MSL
hPa
Rain since
9am
mm
Dir  Spd
km/h
Gust
km/h
Spd
kts
Gust
kts
23/11:30pm 23.5 28.2 21.9 91 1.1 CALM 0 0 0 0 - - 0.0
23/11:00pm 23.5 28.2 21.9 91 1.1 CALM 0 0 0 0 - - 0.0
23/10:30pm 23.7 27.7 22.0 90 1.1 SSE 4 6 2 3 - - 0.0
23/10:00pm 24.0 28.4 22.1 89 1.3 S 2 6 1 3 - - 0.0
23/09:30pm 24.8 29.0 21.7 83 2.1 NE 2 4 1 2 - - 0.0
23/09:00pm 24.5 28.4 21.8 85 1.8 NE 4 6 2 3 - - 0.0
23/08:30pm 25.0 29.8 22.1 84 1.9 CALM 0 0 0 0 - - 0.0
23/08:00pm 25.1 29.1 22.0 83 2.1 NE 4 6 2 3 - - 0.0
23/07:30pm 25.2 28.5 21.9 82 2.2 NE 7 11 4 6 - - 0.0
23/07:00pm 25.3 28.7 21.6 80 2.5 ENE 6 7 3 4 - - 0.0
23/06:30pm 25.2 28.6 21.7 81 2.3 ENE 6 9 3 5 - - 0.0
23/06:00pm 25.3 28.8 22.2 83 2.1 NE 7 15 4 8 - - 0.0
23/05:30pm 25.4 28.9 22.1 82 2.2 NNE 7 11 4 6 - - 0.0
23/05:00pm 25.5 28.3 21.6 79 2.6 NNE 9 13 5 7 - - 0.0
23/04:30pm 25.9 28.3 20.9 74 3.3 NNE 9 13 5 7 - - 0.0
23/04:00pm 26.6 29.4 20.9 71 3.8 NNE 7 11 4 6 - - 0.0
23/03:30pm 26.8 30.4 22.0 75 3.2 NNE 6 9 3 5 - - 0.0
23/03:00pm 26.5 29.8 21.9 76 3.1 NNE 7 11 4 6 - - 0.0
23/02:30pm 26.5 29.5 21.3 73 3.5 N 7 13 4 7 - - 0.0
23/02:00pm 26.8 29.2 20.9 70 3.9 N 9 15 5 8 - - 0.0
23/01:30pm 26.8 28.6 21.1 71 3.8 N 13 19 7 10 - - 0.0
23/01:00pm 27.3 29.5 20.4 66 4.5 N 9 13 5 7 - - 0.0
23/12:30pm 27.6 30.4 21.6 70 4.0 NNW 9 19 5 10 - - 0.0
23/12:00pm 26.8 29.2 21.6 73 3.5 NNW 11 15 6 8 - - 0.0
23/11:30am 26.8 29.6 21.6 73 3.5 N 9 20 5 11 - - 0.0
23/11:00am 27.0 29.3 21.3 71 3.8 N 11 17 6 9 - - 0.0
23/10:30am 26.3 28.8 21.7 76 3.1 NNW 11 17 6 9 - - 0.0
23/10:00am 26.2 28.4 21.8 77 2.9 N 13 20 7 11 - - 0.0
23/09:30am 26.1 29.1 22.6 81 2.4 N 11 17 6 9 - - 0.0
23/09:00am 25.5 29.1 22.4 83 2.1 NNE 7 13 4 7 - - 1.2
23/08:30am 25.3 29.9 23.2 88 1.4 N 4 6 2 3 - - 1.2
23/08:00am 24.4 29.7 23.0 92 0.9 CALM 0 0 0 0 - - 1.2
23/07:30am 23.3 28.3 22.5 95 0.5 CALM 0 0 0 0 - - 1.2
23/07:00am 22.7 27.4 21.9 95 0.5 CALM 0 0 0 0 - - 1.2
23/06:30am 22.5 27.1 21.7 95 0.5 CALM 0 0 0 0 - - 1.2
23/06:00am 22.3 26.8 21.6 96 0.5 CALM 0 0 0 0 - - 1.2
23/05:30am 22.4 26.2 21.7 96 0.5 WSW 4 6 2 3 - - 1.2
23/05:00am 22.4 25.8 21.7 96 0.5 WSW 6 7 3 4 - - 1.2
23/04:30am 22.5 26.3 21.7 95 0.5 WSW 4 6 2 3 - - 1.2
23/04:00am 22.3 26.0 21.5 95 0.5 WSW 4 6 2 3 - - 1.0
23/03:30am 22.3 26.0 21.5 95 0.5 WSW 4 4 2 2 - - 1.0
23/03:00am 22.3 26.0 21.5 95 0.5 WSW 4 6 2 3 - - 1.0
23/02:30am 22.4 26.1 21.4 94 0.7 W 4 4 2 2 - - 1.0
23/02:00am 22.6 26.4 21.6 94 0.7 W 4 4 2 2 - - 1.0
23/01:30am 22.6 26.3 21.4 93 0.8 W 4 4 2 2 - - 1.0
23/01:00am 22.8 26.8 21.4 92 0.9 W 2 4 1 2 - - 1.0
23/12:30am 22.7 26.3 21.3 92 0.9 W 4 4 2 2 - - 1.0
23/12:00am 22.5 26.1 21.3 93 0.8 W 4 4 2 2 - - 1.0
 
Date/Time
EST
Temp
°C
App
Temp
°C
Dew
Point
°C
Rel
Hum
%
Delta-T
°C
Wind Press
QNH
hPa
Press
MSL
hPa
Rain since
9am
mm
Dir  Spd
km/h
Gust
km/h
Spd
kts
Gust
kts
22/11:30pm 22.5 26.1 21.3 93 0.8 W 4 4 2 2 - - 1.0
22/11:00pm 22.6 26.3 21.4 93 0.8 W 4 4 2 2 - - 1.0
22/10:30pm 22.4 26.7 21.2 93 0.8 CALM 0 0 0 0 - - 1.0
22/10:00pm 22.7 26.8 21.5 93 0.8 W 2 4 1 2 - - 1.0

Other Formats:

Comma delimited format used in spreadsheet applications
http://www.bom.gov.au/fwo/IDQ60801/IDQ60801.94561.axf

JavaScript Object Notation format (JSON) in row-major order
http://www.bom.gov.au/fwo/IDQ60801/IDQ60801.94561.json